createdAt,value
2019-04-25T00:02:26.443Z,133.00
2019-04-25T00:04:56.262Z,133.27
2019-04-25T00:07:26.014Z,132.70
2019-04-25T00:09:56.301Z,135.97
2019-04-25T00:12:26.043Z,142.63
2019-04-25T00:14:57.330Z,141.13
2019-04-25T00:17:27.355Z,138.40
2019-04-25T00:19:58.086Z,139.37
2019-04-25T00:22:53.240Z,135.67
2019-04-25T00:25:49.176Z,135.67
2019-04-25T00:28:21.643Z,135.33
2019-04-25T00:30:52.261Z,136.50
2019-04-25T00:33:24.083Z,136.57
2019-04-25T00:35:53.738Z,136.13
2019-04-25T00:38:23.418Z,135.90
2019-04-25T00:40:53.582Z,136.57
2019-04-25T00:43:23.523Z,135.97
2019-04-25T00:45:53.187Z,139.23
2019-04-25T00:48:22.873Z,136.10
2019-04-25T00:50:54.533Z,136.47
2019-04-25T00:53:23.986Z,136.67
2019-04-25T00:55:53.891Z,134.83
2019-04-25T00:58:33.149Z,134.07
2019-04-25T01:01:24.989Z,134.17
2019-04-25T01:03:55.108Z,133.53
2019-04-25T01:06:24.827Z,133.60
2019-04-25T01:08:55.821Z,133.33
2019-04-25T01:11:25.947Z,135.67
2019-04-25T01:13:55.867Z,133.00
2019-04-25T01:16:25.704Z,132.40
2019-04-25T01:18:56.511Z,133.70
2019-04-25T01:21:26.308Z,133.63
2019-04-25T01:23:56.051Z,136.27
2019-04-25T01:26:25.747Z,133.47
2019-04-25T01:28:56.036Z,134.50
2019-04-25T01:31:27.762Z,134.53
2019-04-25T01:33:57.610Z,133.03
2019-04-25T01:36:44.378Z,133.60
2019-04-25T01:39:39.598Z,133.97
2019-04-25T01:42:27.118Z,130.87
2019-04-25T01:44:57.999Z,133.73
2019-04-25T01:47:28.763Z,130.53
2019-04-25T01:49:58.510Z,130.50
2019-04-25T01:52:28.298Z,129.80
2019-04-25T01:54:58.868Z,131.30
2019-04-25T01:57:29.674Z,133.93
2019-04-25T01:59:59.351Z,136.70
2019-04-25T02:02:30.498Z,133.63
2019-04-25T02:05:00.284Z,132.83
2019-04-25T02:07:30.291Z,133.20
2019-04-25T02:09:59.965Z,133.30
2019-04-25T02:12:55.205Z,133.83
2019-04-25T02:15:27.631Z,132.57
2019-04-25T02:17:59.103Z,131.60
2019-04-25T02:20:28.898Z,131.93
2019-04-25T02:22:58.754Z,132.13
2019-04-25T02:25:28.427Z,130.03
2019-04-25T02:28:01.126Z,130.40
2019-04-25T02:30:29.787Z,132.13
2019-04-25T02:33:02.754Z,131.10
2019-04-25T02:35:30.882Z,133.67
2019-04-25T02:38:02.440Z,132.10
2019-04-25T02:40:33.786Z,134.87
2019-04-25T02:43:07.919Z,134.70
2019-04-25T02:45:55.474Z,134.07
2019-04-25T02:48:46.336Z,134.30
2019-04-25T02:51:24.354Z,134.00
2019-04-25T02:53:55.933Z,135.17
2019-04-25T02:56:33.565Z,133.60
2019-04-25T02:58:58.501Z,133.27
2019-04-25T03:01:28.427Z,133.13
2019-04-25T03:03:59.336Z,132.43
2019-04-25T03:06:29.646Z,132.50
2019-04-25T03:09:00.297Z,133.87
2019-04-25T03:11:34.562Z,134.33
2019-04-25T03:14:06.581Z,132.83
2019-04-25T03:16:35.819Z,133.63
2019-04-25T03:19:26.363Z,133.63
2019-04-25T03:22:00.164Z,138.53
2019-04-25T03:24:30.583Z,134.13
2019-04-25T03:27:00.843Z,133.23
2019-04-25T03:29:31.832Z,134.60
2019-04-25T03:32:02.699Z,133.40
2019-04-25T03:34:35.112Z,137.10
2019-04-25T03:37:05.582Z,134.60
2019-04-25T03:39:35.751Z,132.37
2019-04-25T03:42:06.239Z,132.60
2019-04-25T03:44:36.034Z,164.07
2019-04-25T03:47:07.488Z,159.07
2019-04-25T03:49:37.147Z,158.80
2019-04-25T03:52:06.875Z,158.80
2019-04-25T03:54:36.619Z,158.27
2019-04-25T03:57:07.349Z,158.03
2019-04-25T03:59:37.250Z,157.10
2019-04-25T04:02:07.974Z,157.63
2019-04-25T04:04:39.483Z,157.73
2019-04-25T04:07:10.792Z,156.77
2019-04-25T04:09:40.550Z,155.03
2019-04-25T04:12:10.227Z,155.10
2019-04-25T04:14:39.899Z,154.80
2019-04-25T04:17:28.799Z,155.53
2019-04-25T04:20:16.239Z,155.30
2019-04-25T04:22:53.290Z,161.07
2019-04-25T04:25:23.650Z,148.57
2019-04-25T04:27:53.843Z,149.33
2019-04-25T04:30:24.194Z,149.10
2019-04-25T04:32:53.923Z,148.83
2019-04-25T04:35:23.661Z,149.70
2019-04-25T04:37:54.176Z,148.90
2019-04-25T04:40:24.382Z,148.50
2019-04-25T04:42:54.243Z,149.43
2019-04-25T04:45:23.986Z,149.47
2019-04-25T04:47:53.835Z,148.97
2019-04-25T04:50:25.228Z,148.80
2019-04-25T04:52:54.883Z,149.13
2019-04-25T04:55:24.550Z,148.47
2019-04-25T04:57:54.347Z,150.17
2019-04-25T05:00:25.523Z,150.93
2019-04-25T05:03:01.789Z,150.47
2019-04-25T05:05:43.911Z,152.80
2019-04-25T05:08:25.708Z,151.30
2019-04-25T05:10:57.338Z,155.57
2019-04-25T05:13:26.749Z,150.83
2019-04-25T05:15:56.747Z,150.47
2019-04-25T05:18:37.486Z,150.30
2019-04-25T05:20:57.790Z,150.40
2019-04-25T05:23:27.530Z,150.77
2019-04-25T05:25:57.219Z,151.50
2019-04-25T05:28:26.878Z,151.17
2019-04-25T05:31:27.767Z,150.97
2019-04-25T05:33:57.440Z,150.30
2019-04-25T05:36:37.456Z,150.67
2019-04-25T05:39:09.447Z,155.90
2019-04-25T05:42:04.278Z,150.70
2019-04-25T05:44:34.971Z,149.40
2019-04-25T05:47:05.571Z,150.63
2019-04-25T05:49:35.305Z,150.80
2019-04-25T05:52:05.202Z,151.27
2019-04-25T05:54:34.911Z,150.90
2019-04-25T05:57:04.743Z,154.33
2019-04-25T05:59:35.495Z,150.27
2019-04-25T06:02:05.354Z,150.97
2019-04-25T06:04:35.179Z,151.80
2019-04-25T06:07:05.689Z,149.90
2019-04-25T06:09:54.740Z,150.10
2019-04-25T06:12:56.050Z,150.20
2019-04-25T06:15:28.516Z,148.60
2019-04-25T06:18:11.537Z,148.40
2019-04-25T06:20:41.199Z,150.80
2019-04-25T06:23:35.842Z,150.10
2019-04-25T06:26:19.201Z,150.87
2019-04-25T06:28:48.977Z,152.53
2019-04-25T06:31:10.223Z,154.83
2019-04-25T06:33:40.105Z,153.57
2019-04-25T06:36:10.365Z,151.97
2019-04-25T06:38:40.100Z,152.23
2019-04-25T06:41:09.774Z,152.20
2019-04-25T06:43:41.223Z,163.73
2019-04-25T06:46:17.363Z,153.27
2019-04-25T06:48:51.118Z,153.57
2019-04-25T06:51:22.515Z,154.70
2019-04-25T06:53:53.453Z,155.00
2019-04-25T06:56:24.966Z,153.87
2019-04-25T06:58:55.089Z,154.03
2019-04-25T07:01:26.183Z,155.00
2019-04-25T07:03:56.393Z,154.20
2019-04-25T07:06:27.143Z,156.17
2019-04-25T07:08:56.859Z,156.97
2019-04-25T07:11:26.990Z,157.07
2019-04-25T07:13:56.779Z,161.07
2019-04-25T07:16:27.253Z,161.77
2019-04-25T07:18:57.140Z,161.03
2019-04-25T07:21:26.891Z,160.87
2019-04-25T07:23:56.653Z,163.30
2019-04-25T07:26:53.733Z,165.57
2019-04-25T07:29:37.935Z,178.47
2019-04-25T07:32:14.842Z,162.03
2019-04-25T07:34:44.922Z,163.47
2019-04-25T07:37:14.672Z,163.47
2019-04-25T07:39:44.487Z,162.87
2019-04-25T07:42:14.241Z,162.40
2019-04-25T07:44:50.606Z,166.70
2019-04-25T07:47:16.277Z,170.03
2019-04-25T07:49:45.926Z,167.67
2019-04-25T07:52:15.614Z,166.17
2019-04-25T07:54:45.275Z,166.43
2019-04-25T07:57:15.084Z,166.43
2019-04-25T07:59:44.830Z,168.97
2019-04-25T08:02:14.579Z,173.07
2019-04-25T08:04:44.393Z,174.83
2019-04-25T08:07:14.345Z,169.03
2019-04-25T08:09:44.372Z,161.73
2019-04-25T08:12:14.218Z,159.23
2019-04-25T08:14:58.934Z,157.90
2019-04-25T08:17:46.446Z,157.00
2019-04-25T08:20:26.671Z,154.60
2019-04-25T08:22:58.989Z,157.83
2019-04-25T08:25:39.223Z,153.03
2019-04-25T08:28:08.395Z,153.07
2019-04-25T08:30:38.264Z,153.83
2019-04-25T08:33:08.147Z,154.43
2019-04-25T08:35:38.218Z,156.40
2019-04-25T08:38:08.115Z,152.90
2019-04-25T08:40:38.967Z,153.00
2019-04-25T08:43:08.959Z,151.80
2019-04-25T08:45:39.706Z,153.67
2019-04-25T08:48:09.684Z,163.53
2019-04-25T08:50:49.658Z,155.90
2019-04-25T08:53:19.347Z,159.37
2019-04-25T08:56:03.869Z,156.17
2019-04-25T08:58:43.648Z,156.07
2019-04-25T09:01:32.431Z,153.90
2019-04-25T09:04:31.672Z,157.57
2019-04-25T09:07:05.711Z,154.87
2019-04-25T09:09:36.613Z,160.90
2019-04-25T09:12:06.836Z,158.60
2019-04-25T09:14:37.567Z,141.73
2019-04-25T09:17:07.580Z,141.80
2019-04-25T09:19:38.381Z,138.37
2019-04-25T09:22:08.374Z,137.00
2019-04-25T09:24:38.933Z,137.53
2019-04-25T09:27:09.036Z,139.60
2019-04-25T09:29:38.986Z,135.80
2019-04-25T09:32:08.664Z,136.60
2019-04-25T09:34:38.331Z,135.17
2019-04-25T09:37:08.084Z,142.80
2019-04-25T09:39:46.110Z,141.73
2019-04-25T09:42:15.783Z,143.00
2019-04-25T09:45:03.895Z,142.90
2019-04-25T09:47:35.727Z,137.43
2019-04-25T09:50:08.791Z,153.50
2019-04-25T09:52:38.468Z,137.03
2019-04-25T09:55:24.191Z,140.93
2019-04-25T09:58:15.224Z,137.03
2019-04-25T10:00:48.067Z,139.30
2019-04-25T10:03:17.962Z,136.57
2019-04-25T10:05:47.787Z,139.50
2019-04-25T10:08:17.795Z,175.00
2019-04-25T10:10:47.735Z,137.87
2019-04-25T10:13:17.471Z,138.77
2019-04-25T10:16:03.988Z,140.13
2019-04-25T10:18:34.562Z,137.93
2019-04-25T10:21:07.755Z,135.97
2019-04-25T10:23:38.253Z,138.00
2019-04-25T10:26:09.771Z,136.67
2019-04-25T10:28:41.642Z,134.43
2019-04-25T10:31:13.624Z,135.27
2019-04-25T10:33:45.835Z,136.13
2019-04-25T10:36:16.451Z,133.77
2019-04-25T10:39:01.106Z,135.50
2019-04-25T10:41:18.302Z,134.10
2019-04-25T10:43:50.473Z,135.07
2019-04-25T10:46:21.797Z,135.30
2019-04-25T10:48:54.047Z,133.60
2019-04-25T10:51:24.004Z,133.93
2019-04-25T10:53:55.030Z,134.97
2019-04-25T10:56:25.124Z,136.90
2019-04-25T10:58:55.168Z,134.40
2019-04-25T11:01:24.948Z,135.13
2019-04-25T11:04:08.855Z,136.57
2019-04-25T11:06:38.778Z,135.83
2019-04-25T11:09:13.766Z,137.93
2019-04-25T11:11:43.727Z,171.23
2019-04-25T11:14:14.027Z,177.17
2019-04-25T11:16:45.578Z,173.40
2019-04-25T11:19:15.448Z,167.40
2019-04-25T11:21:45.676Z,170.07
2019-04-25T11:24:16.311Z,168.57
2019-04-25T11:26:49.920Z,166.63
2019-04-25T11:29:18.478Z,165.10
2019-04-25T11:31:49.541Z,163.43
2019-04-25T11:34:19.667Z,163.60
2019-04-25T11:36:50.742Z,163.53
2019-04-25T11:39:42.611Z,163.47
2019-04-25T11:42:16.575Z,163.60
2019-04-25T11:44:46.425Z,160.60
2019-04-25T11:47:16.166Z,162.63
2019-04-25T11:49:47.799Z,160.90
2019-04-25T11:52:27.590Z,157.10
2019-04-25T11:54:50.281Z,156.90
2019-04-25T11:57:19.939Z,156.87
2019-04-25T11:59:50.610Z,155.07
2019-04-25T12:02:23.869Z,154.17
2019-04-25T12:04:55.003Z,154.80
2019-04-25T12:07:26.614Z,156.77
2019-04-25T12:09:56.342Z,190.00
2019-04-25T12:12:26.046Z,153.93
2019-04-25T12:14:55.915Z,152.97
2019-04-25T12:17:25.664Z,152.33
2019-04-25T12:19:56.228Z,152.80
2019-04-25T12:22:26.530Z,151.93
2019-04-25T12:24:56.197Z,152.30
2019-04-25T12:27:26.059Z,155.50
2019-04-25T12:29:55.799Z,153.20
2019-04-25T12:32:26.543Z,153.30
2019-04-25T12:34:56.325Z,152.77
2019-04-25T12:37:26.075Z,152.53
2019-04-25T12:39:55.966Z,154.40
2019-04-25T12:42:25.895Z,154.87
2019-04-25T12:45:14.627Z,155.43
2019-04-25T12:47:47.380Z,152.43
2019-04-25T12:50:18.805Z,155.17
2019-04-25T12:52:48.730Z,152.47
2019-04-25T12:55:19.102Z,153.37
2019-04-25T12:57:49.465Z,154.20
2019-04-25T13:00:24.322Z,154.13
2019-04-25T13:02:54.867Z,153.17
2019-04-25T13:05:24.680Z,154.17
2019-04-25T13:07:57.404Z,152.80
2019-04-25T13:10:25.915Z,152.80
2019-04-25T13:12:55.591Z,152.70
2019-04-25T13:15:27.066Z,153.23
2019-04-25T13:17:57.247Z,152.03
2019-04-25T13:20:27.003Z,152.63
2019-04-25T13:22:56.709Z,152.90
2019-04-25T13:25:26.507Z,152.73
2019-04-25T13:28:08.421Z,152.50
2019-04-25T13:31:12.161Z,151.87
2019-04-25T13:34:15.775Z,154.73
2019-04-25T13:36:45.610Z,152.73
2019-04-25T13:39:19.838Z,150.07
2019-04-25T13:41:49.549Z,151.83
2019-04-25T13:44:19.291Z,153.13
2019-04-25T13:46:48.993Z,152.53
2019-04-25T13:49:19.461Z,151.17
2019-04-25T13:51:50.170Z,152.10
2019-04-25T13:54:20.897Z,154.13
2019-04-25T13:56:53.279Z,151.60
2019-04-25T13:59:23.478Z,152.63
2019-04-25T14:01:57.536Z,153.67
2019-04-25T14:04:29.380Z,153.63
2019-04-25T14:06:59.391Z,152.20
2019-04-25T14:09:29.519Z,151.27
2019-04-25T14:11:59.455Z,152.17
2019-04-25T14:14:30.159Z,152.10
2019-04-25T14:17:11.714Z,153.73
2019-04-25T14:20:02.076Z,153.33
2019-04-25T14:22:33.407Z,155.47
2019-04-25T14:25:04.025Z,152.87
2019-04-25T14:27:34.146Z,151.87
2019-04-25T14:30:06.623Z,152.53
2019-04-25T14:32:36.564Z,153.10
2019-04-25T14:35:08.339Z,151.83
2019-04-25T14:37:39.686Z,153.23
2019-04-25T14:40:10.306Z,152.60
2019-04-25T14:42:40.135Z,152.87
2019-04-25T14:45:10.403Z,152.30
2019-04-25T14:47:40.135Z,151.53
2019-04-25T14:50:10.163Z,151.90
2019-04-25T14:52:40.829Z,151.80
2019-04-25T14:55:25.606Z,152.87
2019-04-25T14:57:56.260Z,152.10
2019-04-25T15:00:36.799Z,150.73
2019-04-25T15:03:06.830Z,152.23
2019-04-25T15:05:37.351Z,151.13
2019-04-25T15:08:07.602Z,150.97
2019-04-25T15:10:37.447Z,153.57
2019-04-25T15:13:08.791Z,150.80
2019-04-25T15:15:38.652Z,152.57
2019-04-25T15:18:08.351Z,154.53
2019-04-25T15:20:38.110Z,152.63
2019-04-25T15:23:09.031Z,151.20
2019-04-25T15:29:02.482Z,152.77
2019-04-25T15:31:32.144Z,153.30
2019-04-25T15:34:02.461Z,154.87
2019-04-25T15:36:56.303Z,151.87
2019-04-25T15:39:44.387Z,152.27
2019-04-25T15:42:34.030Z,154.30
2019-04-25T15:45:29.355Z,151.90
2019-04-25T15:48:18.235Z,150.43
2019-04-25T15:50:48.094Z,154.37
2019-04-25T15:53:17.834Z,150.73
2019-04-25T15:55:47.803Z,155.27
2019-04-25T15:58:17.460Z,151.73
2019-04-25T16:00:47.211Z,150.83
2019-04-25T16:03:17.247Z,154.57
2019-04-25T16:05:47.059Z,154.80
2019-04-25T16:08:16.857Z,151.10
2019-04-25T16:10:46.538Z,152.90
2019-04-25T16:13:16.231Z,150.67
2019-04-25T16:15:46.075Z,157.20
2019-04-25T16:18:16.123Z,154.17
2019-04-25T16:20:45.946Z,151.40
2019-04-25T16:23:15.615Z,151.87
2019-04-25T16:25:45.305Z,152.47
2019-04-25T16:28:15.140Z,151.73
2019-04-25T16:30:45.167Z,151.40
2019-04-25T16:33:14.906Z,151.30
2019-04-25T16:35:44.735Z,150.37
2019-04-25T16:38:14.807Z,150.13
2019-04-25T16:40:44.587Z,154.83
2019-04-25T16:43:17.556Z,149.37
2019-04-25T16:45:47.564Z,152.03
2019-04-25T16:48:17.750Z,153.10
2019-04-25T16:50:47.502Z,148.90
2019-04-25T16:53:17.246Z,149.03
2019-04-25T16:55:46.965Z,150.13
2019-04-25T16:58:16.870Z,148.77
2019-04-25T17:00:51.775Z,150.80
2019-04-25T17:03:22.974Z,149.87
2019-04-25T17:05:52.903Z,149.20
2019-04-25T17:08:23.416Z,150.47
2019-04-25T17:10:53.220Z,150.67
2019-04-25T17:13:24.127Z,148.53
2019-04-25T17:16:23.482Z,149.27
2019-04-25T17:18:57.074Z,150.43
2019-04-25T17:21:27.043Z,150.57
2019-04-25T17:23:57.146Z,148.90
2019-04-25T17:26:27.256Z,150.70
2019-04-25T17:28:59.434Z,148.57
2019-04-25T17:32:00.570Z,148.20
2019-04-25T17:34:43.910Z,148.47
2019-04-25T17:37:31.013Z,147.97
2019-04-25T17:40:06.592Z,147.60
2019-04-25T17:42:36.773Z,147.27
2019-04-25T17:45:09.487Z,148.90
2019-04-25T17:47:39.154Z,148.30
2019-04-25T17:50:08.982Z,147.67
2019-04-25T17:52:38.744Z,148.87
2019-04-25T17:55:08.591Z,147.43
2019-04-25T17:57:38.338Z,148.20
2019-04-25T18:00:11.330Z,151.30
2019-04-25T18:02:41.425Z,147.97
2019-04-25T18:05:12.446Z,148.37
2019-04-25T18:07:42.154Z,149.83
2019-04-25T18:10:12.839Z,147.47
2019-04-25T18:12:42.538Z,146.33
2019-04-25T18:15:14.309Z,147.83
2019-04-25T18:17:44.510Z,150.03
2019-04-25T18:20:18.928Z,147.03
2019-04-25T18:23:11.019Z,147.00
2019-04-25T18:25:58.094Z,146.27
2019-04-25T18:28:35.516Z,147.47
2019-04-25T18:31:06.551Z,145.37
2019-04-25T18:33:37.251Z,145.50
2019-04-25T18:36:32.552Z,145.03
2019-04-25T18:39:19.488Z,146.30
2019-04-25T18:41:54.891Z,144.30
2019-04-25T18:44:24.618Z,156.67
2019-04-25T18:46:54.459Z,144.83
2019-04-25T18:49:24.153Z,147.27
2019-04-25T18:51:58.130Z,146.60
2019-04-25T18:54:43.383Z,143.47
2019-04-25T18:57:28.991Z,144.57
2019-04-25T19:00:16.785Z,145.70
2019-04-25T19:02:56.410Z,143.60
2019-04-25T19:05:45.175Z,144.40
2019-04-25T19:08:14.907Z,145.80
2019-04-25T19:10:45.097Z,143.43
2019-04-25T19:13:16.239Z,143.77
2019-04-25T19:15:45.988Z,143.77
2019-04-25T19:18:16.230Z,143.27
2019-04-25T19:20:46.333Z,144.47
2019-04-25T19:23:16.004Z,146.77
2019-04-25T19:25:45.907Z,143.10
2019-04-25T19:28:15.896Z,145.00
2019-04-25T19:30:45.783Z,143.87
2019-04-25T19:33:15.594Z,143.43
2019-04-25T19:35:45.734Z,142.20
2019-04-25T19:38:15.671Z,143.37
2019-04-25T19:40:53.411Z,145.37
2019-04-25T19:43:30.451Z,143.37
2019-04-25T19:46:00.205Z,142.87
2019-04-25T19:48:30.099Z,143.00
2019-04-25T19:50:59.787Z,145.57
2019-04-25T19:53:29.455Z,145.00
2019-04-25T19:55:59.214Z,142.90
2019-04-25T19:58:28.887Z,140.40
2019-04-25T20:00:58.581Z,142.63
2019-04-25T20:03:58.560Z,141.53
2019-04-25T20:06:45.539Z,139.77
2019-04-25T20:09:34.275Z,140.30
2019-04-25T20:12:04.399Z,139.47
2019-04-25T20:14:34.074Z,139.60
2019-04-25T20:17:04.956Z,140.53
2019-04-25T20:19:34.699Z,140.27
2019-04-25T20:22:04.714Z,141.07
2019-04-25T20:24:34.807Z,140.77
2019-04-25T20:27:05.557Z,139.80
2019-04-25T20:29:35.218Z,139.80
2019-04-25T20:32:07.152Z,140.50
2019-04-25T20:34:36.659Z,141.53
2019-04-25T20:37:06.427Z,139.00
2019-04-25T20:39:36.094Z,140.03
2019-04-25T20:42:06.147Z,138.97
2019-04-25T20:44:36.676Z,138.67
2019-04-25T20:47:06.802Z,138.80
2019-04-25T20:49:36.551Z,139.03
2019-04-25T20:52:07.671Z,141.40
2019-04-25T20:54:37.351Z,142.63
2019-04-25T20:57:07.037Z,138.93
2019-04-25T20:59:36.791Z,139.90
2019-04-25T21:02:07.552Z,138.80
2019-04-25T21:04:40.457Z,139.00
2019-04-25T21:07:10.755Z,138.13
2019-04-25T21:09:41.451Z,141.60
2019-04-25T21:12:11.216Z,139.07
2019-04-25T21:15:01.818Z,140.53
2019-04-25T21:17:35.755Z,138.43
2019-04-25T21:20:06.475Z,138.27
2019-04-25T21:22:36.279Z,137.90
2019-04-25T21:25:06.602Z,145.17
2019-04-25T21:27:36.414Z,137.50
2019-04-25T21:30:06.996Z,138.67
2019-04-25T21:32:53.091Z,138.00
2019-04-25T21:35:24.485Z,136.60
2019-04-25T21:37:55.240Z,136.87
2019-04-25T21:40:42.947Z,136.17
2019-04-25T21:43:17.282Z,136.33
2019-04-25T21:45:47.243Z,136.77
2019-04-25T21:48:17.310Z,136.10
2019-04-25T21:50:47.552Z,136.40
2019-04-25T21:53:17.220Z,136.80
2019-04-25T21:55:47.347Z,136.23
2019-04-25T21:58:17.590Z,136.20
2019-04-25T22:01:10.774Z,137.00
2019-04-25T22:03:42.231Z,137.03
2019-04-25T22:06:12.188Z,136.80
2019-04-25T22:08:41.894Z,182.93
2019-04-25T22:11:11.807Z,181.57
2019-04-25T22:13:41.923Z,168.80
2019-04-25T22:16:12.648Z,173.00
2019-04-25T22:18:42.767Z,181.13
2019-04-25T22:21:12.991Z,167.63
2019-04-25T22:23:43.195Z,168.20
2019-04-25T22:26:13.039Z,166.77
2019-04-25T22:28:43.367Z,169.00
2019-04-25T22:31:18.142Z,171.93
2019-04-25T22:34:00.303Z,177.47
2019-04-25T22:36:31.641Z,183.83
2019-04-25T22:39:11.571Z,162.17
2019-04-25T22:41:47.010Z,161.43
2019-04-25T22:44:18.808Z,169.87
2019-04-25T22:46:48.827Z,163.57
2019-04-25T22:49:18.495Z,159.40
2019-04-25T22:51:48.246Z,159.33
2019-04-25T22:54:18.549Z,159.87
2019-04-25T22:56:48.290Z,161.57
2019-04-25T22:59:18.338Z,162.37
2019-04-25T23:02:10.103Z,159.60
2019-04-25T23:04:48.851Z,159.33
2019-04-25T23:07:18.771Z,159.97
2019-04-25T23:09:50.394Z,157.77
2019-04-25T23:12:20.351Z,158.87
2019-04-25T23:14:50.035Z,158.27
2019-04-25T23:17:19.715Z,156.47
2019-04-25T23:19:49.763Z,156.27
2019-04-25T23:22:19.444Z,156.90
2019-04-25T23:24:57.631Z,156.27
2019-04-25T23:27:42.900Z,157.07
2019-04-25T23:30:14.810Z,157.47
2019-04-25T23:32:44.556Z,156.77
2019-04-25T23:35:28.077Z,155.03
2019-04-25T23:37:46.651Z,156.93
2019-04-25T23:40:16.458Z,156.20
2019-04-25T23:42:46.143Z,157.83
2019-04-25T23:45:16.971Z,155.10
2019-04-25T23:47:46.654Z,154.00
2019-04-25T23:50:16.866Z,152.77
2019-04-25T23:52:46.797Z,154.77
2019-04-25T23:55:17.258Z,153.30
2019-04-25T23:57:47.095Z,158.37
